Time;durP1;ratioP1;P1;durP2;ratioP2;P2;SDS_P1;SDS_P2;PMS_P1;PMS_P2;Temp;Humidity;BMP_temperature;BMP_pressure;BME280_temperature;BME280_humidity;BME280_pressure;Samples;Min_cycle;Max_cycle;Signal;HPM_P1;HPM_P2
2021/06/14 00:03:12;;;;;;;6.57;3.20;;;;;;;18.06;50.10;98785.78;8429253;28;20393;-66
2021/06/14 00:07:16;;;;;;;5.50;3.23;;;;;;;18.07;49.90;98780.44;8416836;28;20230;-65
2021/06/14 00:11:19;;;;;;;5.60;3.70;;;;;;;18.03;49.77;98778.94;8417733;28;20238;-65
2021/06/14 00:15:22;;;;;;;5.17;3.10;;;;;;;17.94;50.02;98782.97;8416508;28;20203;-65
2021/06/14 00:19:26;;;;;;;7.30;3.33;;;;;;;17.86;50.31;98780.00;8416535;28;20203;-65
2021/06/14 00:23:31;;;;;;;7.03;3.40;;;;;;;17.76;50.70;98782.31;8416192;28;20228;-65
2021/06/14 00:27:33;;;;;;;6.20;3.50;;;;;;;17.77;50.78;98773.47;8416320;28;20230;-65
2021/06/14 00:31:36;;;;;;;9.07;3.63;;;;;;;17.67;51.05;98769.75;8416157;28;20305;-65
2021/06/14 00:35:41;;;;;;;5.27;3.80;;;;;;;17.67;51.18;98771.50;8416164;28;20199;-65
2021/06/14 00:39:45;;;;;;;7.00;4.00;;;;;;;17.58;51.60;98768.53;8415874;28;20210;-65
2021/06/14 00:43:48;;;;;;;4.93;3.00;;;;;;;17.69;51.25;98770.50;8423916;28;20382;-65
2021/06/14 00:47:51;;;;;;;4.80;3.33;;;;;;;17.64;51.37;98764.69;8449152;28;20521;-65
2021/06/14 00:51:55;;;;;;;8.20;3.23;;;;;;;17.56;52.05;98764.31;8448953;28;20199;-65
2021/06/14 00:55:58;;;;;;;5.50;3.10;;;;;;;17.49;51.85;98763.00;8449061;28;20497;-65
2021/06/14 01:00:01;;;;;;;8.40;3.70;;;;;;;17.37;52.21;98760.19;8448763;28;20209;-65
2021/06/14 01:04:04;;;;;;;7.23;3.50;;;;;;;17.37;51.97;98754.94;8448952;28;20395;-65
2021/06/14 01:08:09;;;;;;;6.90;3.40;;;;;;;17.33;52.17;98761.28;8448450;28;20532;-65
2021/06/14 01:12:14;;;;;;;7.37;3.43;;;;;;;17.20;52.54;98757.72;8447102;28;20232;-65
2021/06/14 01:16:21;;;;;;;4.87;3.37;;;;;;;17.25;52.15;98754.81;8447208;28;20202;-65
2021/06/14 01:20:51;;;;;;;5.80;3.43;;;;;;;17.16;52.55;98756.22;8446886;28;20210;-65
2021/06/14 01:25:04;;;;;;;8.33;3.80;;;;;;;17.21;52.40;98754.19;8446800;28;20199;-65
2021/06/14 01:29:09;;;;;;;5.60;3.40;;;;;;;17.14;52.30;98751.06;8446975;28;20226;-65
2021/06/14 01:33:13;;;;;;;4.03;3.23;;;;;;;17.18;51.76;98752.56;8448199;28;20205;-65
2021/06/14 01:37:16;;;;;;;5.90;3.50;;;;;;;17.01;52.41;98750.09;8452968;28;20424;-65
2021/06/14 01:41:20;;;;;;;4.93;3.30;;;;;;;17.00;52.39;98746.66;8452555;28;20501;-65
2021/06/14 01:45:25;;;;;;;6.77;3.87;;;;;;;17.07;52.22;98741.06;8452543;28;20210;-65
2021/06/14 01:49:28;;;;;;;8.67;3.90;;;;;;;16.99;52.74;98744.97;8452345;28;20250;-65
2021/06/14 01:53:31;;;;;;;4.73;3.40;;;;;;;17.06;52.21;98735.00;8452490;28;20198;-65
2021/06/14 01:57:34;;;;;;;6.23;3.70;;;;;;;16.95;52.23;98730.38;8452016;28;20206;-65
2021/06/14 02:01:39;;;;;;;7.80;3.70;;;;;;;17.00;52.42;98733.56;8452121;28;20513;-65
2021/06/14 02:05:43;;;;;;;5.80;3.50;;;;;;;16.91;52.22;98725.41;8452061;28;20552;-65
2021/06/14 02:09:46;;;;;;;8.17;3.30;;;;;;;16.85;52.00;98717.91;8435454;28;98375;-65
2021/06/14 02:13:50;;;;;;;6.03;3.40;;;;;;;16.85;52.39;98716.16;8449164;28;20485;-65
2021/06/14 02:17:56;;;;;;;5.97;3.80;;;;;;;16.81;52.12;98711.97;8453695;28;20206;-65
2021/06/14 02:21:59;;;;;;;5.53;3.50;;;;;;;16.69;52.22;98703.06;8454058;28;20331;-65
2021/06/14 02:26:02;;;;;;;7.87;3.80;;;;;;;16.68;52.87;98713.63;8453348;28;20207;-65
2021/06/14 02:30:06;;;;;;;6.57;3.60;;;;;;;16.68;52.59;98711.88;8453382;28;20233;-65
2021/06/14 02:34:10;;;;;;;7.13;3.50;;;;;;;16.56;52.63;98709.94;8453257;28;20237;-65
2021/06/14 02:38:13;;;;;;;6.73;3.77;;;;;;;16.51;53.07;98715.44;8453172;28;20202;-65
2021/06/14 02:42:17;;;;;;;5.97;3.30;;;;;;;16.47;52.70;98727.00;8452864;28;20206;-65
2021/06/14 02:46:20;;;;;;;8.17;3.63;;;;;;;16.34;52.79;98724.22;8452582;28;20199;-65
2021/06/14 02:50:25;;;;;;;6.10;3.37;;;;;;;16.23;52.92;98723.97;8452566;28;20226;-65
2021/06/14 02:54:31;;;;;;;6.23;3.73;;;;;;;16.18;53.48;98726.00;8452880;28;20198;-65
2021/06/14 02:58:36;;;;;;;6.83;3.77;;;;;;;16.15;53.39;98723.56;8453052;28;20492;-65
2021/06/14 03:02:39;;;;;;;5.73;3.40;;;;;;;16.10;53.42;98726.41;8452795;28;20198;-65
2021/06/14 03:06:44;;;;;;;7.30;4.33;;;;;;;16.20;53.57;98725.00;8452408;28;20218;-65
2021/06/14 03:10:48;;;;;;;8.37;4.20;;;;;;;16.11;53.52;98722.91;8452417;28;20250;-65
2021/06/14 03:14:50;;;;;;;5.80;3.93;;;;;;;15.99;53.73;98724.41;8452268;28;20199;-65
2021/06/14 03:18:54;;;;;;;6.67;3.70;;;;;;;16.00;53.17;98723.47;8452128;28;20206;-65
2021/06/14 03:22:58;;;;;;;9.00;4.07;;;;;;;16.09;53.40;98726.50;8451990;28;20408;-66
2021/06/14 03:27:01;;;;;;;5.97;3.87;;;;;;;16.06;53.58;98743.19;8451778;28;20198;-65
2021/06/14 03:31:04;;;;;;;7.77;4.50;;;;;;;16.14;53.10;98732.31;8451832;28;20226;-66
2021/06/14 03:35:08;;;;;;;7.57;4.00;;;;;;;15.89;53.79;98738.03;8451569;28;20285;-65
2021/06/14 03:39:15;;;;;;;6.53;4.30;;;;;;;15.91;53.84;98736.19;8451473;28;20206;-66
2021/06/14 03:43:18;;;;;;;10.17;4.00;;;;;;;15.80;54.32;98732.41;8450783;28;20195;-65
2021/06/14 03:47:21;;;;;;;5.90;3.93;;;;;;;16.07;53.68;98725.75;8451345;28;20199;-65
2021/06/14 03:51:24;;;;;;;8.50;4.30;;;;;;;16.09;53.77;98726.50;8450930;28;20226;-65
2021/06/14 03:55:28;;;;;;;5.87;3.83;;;;;;;16.11;53.61;98722.91;8450116;28;20206;-66
2021/06/14 03:59:30;;;;;;;6.87;4.20;;;;;;;16.24;53.22;98717.84;8418913;28;20205;-65
2021/06/14 04:03:34;;;;;;;7.73;4.37;;;;;;;16.34;53.44;98721.63;8417224;28;20232;-65
2021/06/14 04:07:37;;;;;;;6.87;3.90;;;;;;;16.17;54.09;98724.31;8416728;28;20226;-65
2021/06/14 04:11:41;;;;;;;7.93;4.20;;;;;;;16.17;54.00;98722.53;8416614;28;20537;-65
2021/06/14 04:15:44;;;;;;;7.73;4.33;;;;;;;16.28;53.73;98721.97;8417008;28;20206;-65
2021/06/14 04:19:47;;;;;;;10.07;3.90;;;;;;;16.39;53.95;98716.97;8416663;28;20209;-65
2021/06/14 04:23:50;;;;;;;10.10;4.37;;;;;;;16.40;54.28;98702.13;8416392;28;20494;-65
2021/06/14 04:27:54;;;;;;;8.27;4.77;;;;;;;16.40;53.56;98704.75;8416138;28;20209;-65
2021/06/14 04:31:59;;;;;;;8.20;4.80;;;;;;;16.58;53.71;98711.56;8415898;28;20618;-65
2021/06/14 04:36:03;;;;;;;10.77;4.93;;;;;;;16.54;53.42;98712.63;8415941;28;20206;-65
2021/06/14 04:40:07;;;;;;;8.97;4.87;;;;;;;16.77;53.38;98716.56;8415658;28;20307;-65
2021/06/14 04:44:12;;;;;;;6.57;4.53;;;;;;;16.44;53.49;98715.88;8426917;28;20207;-65
2021/06/14 04:48:14;;;;;;;9.77;4.80;;;;;;;16.53;53.25;98704.91;8449563;28;20342;-65
2021/06/14 04:52:20;;;;;;;9.00;5.10;;;;;;;16.41;52.70;98709.03;8449513;28;20205;-65
2021/06/14 04:56:22;;;;;;;10.27;4.80;;;;;;;16.24;54.21;98707.38;8449141;28;20205;-65
2021/06/14 05:00:27;;;;;;;8.97;4.50;;;;;;;16.34;53.11;98702.47;8445588;28;20233;-66
2021/06/14 05:04:31;;;;;;;8.83;4.13;;;;;;;16.84;52.30;98697.94;8381914;28;20532;-65
2021/06/14 05:08:33;;;;;;;12.93;4.97;;;;;;;16.68;51.83;98696.16;8400763;28;20222;-65
2021/06/14 05:12:36;;;;;;;8.93;4.67;;;;;;;16.39;52.64;98703.91;8415200;28;20289;-65
2021/06/14 05:16:40;;;;;;;8.20;4.80;;;;;;;16.23;52.85;98710.91;8415130;28;20222;-65
2021/06/14 05:20:43;;;;;;;9.23;5.10;;;;;;;16.26;53.09;98702.91;8415155;28;20497;-65
2021/06/14 05:24:46;;;;;;;9.20;4.87;;;;;;;16.23;53.34;98698.69;8410796;28;20192;-65
2021/06/14 05:28:49;;;;;;;7.50;4.57;;;;;;;16.48;52.89;98684.22;8415091;28;20227;-65
2021/06/14 05:32:53;;;;;;;8.47;4.40;;;;;;;16.56;52.87;98699.47;8414928;28;20489;-65
2021/06/14 05:36:56;;;;;;;10.73;4.50;;;;;;;16.49;53.17;98698.16;8414939;28;20199;-65
2021/06/14 05:40:59;;;;;;;11.77;4.87;;;;;;;16.74;52.57;98692.38;8415039;28;20454;-65
2021/06/14 05:45:02;;;;;;;7.63;4.83;;;;;;;16.77;52.38;98692.16;8433104;28;20205;-65
2021/06/14 05:49:07;;;;;;;10.80;5.27;;;;;;;17.15;51.58;98704.81;8448368;28;20232;-65
2021/06/14 05:53:11;;;;;;;11.10;4.97;;;;;;;17.41;49.52;98698.00;8448367;28;20524;-65
2021/06/14 05:57:14;;;;;;;8.27;4.70;;;;;;;17.36;50.41;98711.38;8448128;28;20493;-65
2021/06/14 06:01:17;;;;;;;8.03;4.50;;;;;;;17.62;49.58;98701.09;8448127;28;20207;-65
2021/06/14 06:05:21;;;;;;;10.43;4.27;;;;;;;17.85;48.68;98704.94;8448209;28;20222;-65
2021/06/14 06:09:24;;;;;;;9.20;3.93;;;;;;;18.22;46.98;98701.75;8447465;28;20226;-65
2021/06/14 06:13:27;;;;;;;9.10;4.30;;;;;;;18.32;46.31;98690.59;8430104;28;20497;-64
2021/06/14 06:17:30;;;;;;;10.53;4.50;;;;;;;18.46;46.73;98696.72;8414269;28;20206;-64
2021/06/14 06:21:34;;;;;;;9.83;4.07;;;;;;;18.27;45.46;98690.03;8419684;28;20365;-64
2021/06/14 06:25:37;;;;;;;11.77;4.30;;;;;;;18.37;44.43;98690.28;8420235;28;20385;-64
2021/06/14 06:29:40;;;;;;;10.37;4.33;;;;;;;18.55;43.83;98685.63;8420295;28;20234;-64
2021/06/14 06:33:43;;;;;;;10.90;4.03;;;;;;;18.66;43.53;98690.19;8420108;28;20207;-64
2021/06/14 06:37:47;;;;;;;7.33;3.53;;;;;;;18.44;45.39;98686.31;8419808;28;20203;-64
2021/06/14 06:41:50;;;;;;;7.57;3.73;;;;;;;18.58;43.95;98681.97;8419570;28;20210;-65
2021/06/14 06:45:53;;;;;;;8.47;3.70;;;;;;;18.95;43.72;98685.63;8445191;28;20262;-65
2021/06/14 06:49:57;;;;;;;8.63;4.03;;;;;;;18.67;43.80;98682.19;8452791;28;20249;-64
2021/06/14 06:54:13;;;;;;;7.53;3.73;;;;;;;19.01;43.65;98682.59;8453083;28;20206;-65
2021/06/14 06:58:20;;;;;;;10.77;3.83;;;;;;;19.51;41.36;98677.44;8452821;28;20213;-65
2021/06/14 07:02:23;;;;;;;9.03;4.07;;;;;;;19.79;41.85;98680.78;8453071;28;20206;-64
2021/06/14 07:06:26;;;;;;;8.93;4.00;;;;;;;19.83;41.25;98667.31;8426546;28;20211;-66
2021/06/14 07:10:30;;;;;;;8.03;3.90;;;;;;;19.69;40.23;98677.94;8418361;28;20257;-65
2021/06/14 07:14:33;;;;;;;10.47;4.30;;;;;;;19.32;40.48;98685.75;8385390;28;20497;-66
2021/06/14 07:18:35;;;;;;;9.70;4.23;;;;;;;19.99;39.55;98674.97;8385510;28;20204;-66
2021/06/14 07:22:38;;;;;;;11.90;3.93;;;;;;;20.36;39.04;98668.81;8385057;28;20215;-66
2021/06/14 07:26:43;;;;;;;9.20;3.93;;;;;;;20.22;37.69;98678.56;8385069;28;20219;-66
2021/06/14 07:30:46;;;;;;;9.60;4.50;;;;;;;20.24;37.85;98670.56;8383822;28;20250;-65
2021/06/14 07:34:49;;;;;;;10.50;3.90;;;;;;;20.27;37.66;98667.69;8384975;28;20486;-65
2021/06/14 07:38:51;;;;;;;8.60;4.53;;;;;;;20.58;37.04;98663.66;8398133;28;20481;-65
2021/06/14 07:42:56;;;;;;;10.27;4.03;;;;;;;20.16;37.18;98659.75;8418655;28;20207;-65
2021/06/14 07:46:58;;;;;;;13.70;3.80;;;;;;;20.59;37.98;98651.31;8451141;28;20238;-65
2021/06/14 07:51:01;;;;;;;9.77;3.90;;;;;;;21.18;36.32;98651.22;8441616;28;20548;-70
2021/06/14 07:55:05;;;;;;;9.63;4.03;;;;;;;21.28;36.66;98657.47;8417202;28;20206;-72
2021/06/14 07:59:09;;;;;;;5.20;3.40;;;;;;;21.34;36.46;98666.69;8417227;28;20227;-72
2021/06/14 08:03:12;;;;;;;10.47;4.07;;;;;;;21.78;36.20;98653.63;8416774;28;20208;-72
2021/06/14 08:07:15;;;;;;;10.27;3.80;;;;;;;21.72;35.20;98647.06;8416830;28;20400;-71
2021/06/14 08:11:18;;;;;;;12.07;4.17;;;;;;;21.05;36.28;98647.88;8417114;28;20262;-78
2021/06/14 08:15:24;;;;;;;9.80;4.27;;;;;;;21.77;35.29;98652.81;8417117;28;20210;-80
2021/06/14 08:19:36;;;;;;;10.50;4.03;;;;;;;22.09;35.93;98648.56;8417430;28;20199;-81
2021/06/14 08:27:59;;;;;;;10.07;3.87;;;;;;;22.76;34.39;98658.03;8417042;28;20411;-78
2021/06/14 08:32:04;;;;;;;7.97;3.80;;;;;;;23.04;32.64;98648.66;8416401;28;20227;-78
2021/06/14 08:36:07;;;;;;;7.50;3.90;;;;;;;23.10;32.56;98648.13;8416606;28;20273;-78
2021/06/14 08:40:11;;;;;;;9.93;3.93;;;;;;;23.25;33.01;98643.34;8416510;28;20501;-81
2021/06/14 08:44:15;;;;;;;7.87;3.87;;;;;;;23.57;31.76;98639.69;8427486;28;20264;-77
2021/06/14 08:48:20;;;;;;;9.00;3.67;;;;;;;23.69;31.31;98629.84;8450063;28;20201;-77
2021/06/14 08:52:23;;;;;;;12.27;3.87;;;;;;;23.14;31.28;98624.91;8449848;28;20231;-77
2021/06/14 08:56:28;;;;;;;8.17;3.13;;;;;;;23.91;29.68;98621.72;8450040;28;20275;-77
2021/06/14 09:00:33;;;;;;;7.70;3.80;;;;;;;24.28;30.94;98612.28;8449638;28;20219;-77
2021/06/14 09:04:37;;;;;;;9.07;3.83;;;;;;;23.96;29.93;98608.09;8449538;28;20221;-78
2021/06/14 09:08:40;;;;;;;7.27;3.37;;;;;;;24.01;29.59;98611.16;8449338;28;20253;-77
2021/06/14 09:12:43;;;;;;;9.40;3.53;;;;;;;24.68;29.22;98606.03;8449399;28;20237;-77
2021/06/14 09:16:46;;;;;;;9.47;3.60;;;;;;;25.05;29.21;98611.34;8448702;28;20271;-76
2021/06/14 09:20:58;;;;;;;15.13;3.80;;;;;;;25.44;29.18;98608.59;8448585;28;20205;-76
2021/06/14 09:25:04;;;;;;;9.20;3.43;;;;;;;25.41;28.12;98603.56;8449298;28;20190;-78
2021/06/14 09:29:08;;;;;;;11.13;3.43;;;;;;;25.12;28.55;98599.19;8449392;28;20205;-78
2021/06/14 09:33:21;;;;;;;5.73;3.40;;;;;;;25.11;27.90;98600.19;8451465;28;20230;-79
2021/06/14 09:37:26;;;;;;;7.07;3.27;;;;;;;24.92;28.87;98595.78;8450656;28;20388;-78
2021/06/14 09:41:28;;;;;;;7.20;3.27;;;;;;;25.42;28.89;98592.00;8449059;28;20218;-80
2021/06/14 09:45:32;;;;;;;8.40;3.40;;;;;;;25.68;28.00;98585.97;8448494;28;20206;-78
2021/06/14 09:49:35;;;;;;;5.90;3.30;;;;;;;25.94;27.79;98580.81;8448509;28;20391;-78
2021/06/14 09:53:44;;;;;;;8.87;3.40;;;;;;;26.41;26.59;98569.94;8449204;28;20226;-79
2021/06/14 09:57:47;;;;;;;8.07;3.10;;;;;;;26.47;26.76;98563.19;8454901;28;20251;-81
2021/06/14 10:01:50;;;;;;;6.93;3.30;;;;;;;25.90;26.10;98564.31;8455297;28;20217;-71
2021/06/14 10:05:54;;;;;;;9.73;3.37;;;;;;;26.76;26.58;98562.91;8454674;28;20218;-81
2021/06/14 10:09:58;;;;;;;5.40;3.03;;;;;;;27.23;26.46;98556.34;8455286;28;20515;-83
2021/06/14 10:14:07;;;;;;;6.90;3.50;;;;;;;26.20;25.71;98557.00;8454625;28;20541;-85
2021/06/14 10:18:11;;;;;;;7.10;3.50;;;;;;;26.03;26.34;98547.25;8454097;28;20205;-83
2021/06/14 10:22:14;;;;;;;7.53;3.10;;;;;;;26.88;26.00;98545.72;8453469;28;20226;-77
2021/06/14 10:26:18;;;;;;;5.73;3.23;;;;;;;26.52;25.68;98535.19;8453346;28;20453;-80
2021/06/14 10:30:23;;;;;;;7.13;3.37;;;;;;;26.43;25.94;98527.31;8453602;28;20199;-83
2021/06/14 10:34:26;;;;;;;9.17;3.10;;;;;;;26.75;25.31;98517.88;8453860;28;20195;-82
2021/06/14 10:38:30;;;;;;;6.43;3.00;;;;;;;26.90;24.82;98513.66;8453562;28;20207;-80
2021/06/14 10:42:35;;;;;;;6.37;2.93;;;;;;;26.77;26.10;98506.13;8453594;28;20368;-83
2021/06/14 10:46:43;;;;;;;9.17;2.60;;;;;;;26.83;25.23;98507.31;8452909;28;20205;-82
2021/06/14 10:50:47;;;;;;;6.73;3.07;;;;;;;27.09;25.01;98509.91;8439278;28;20224;-80
2021/06/14 10:54:54;;;;;;;5.60;3.00;;;;;;;26.90;25.07;98503.88;8419982;28;20202;-84
2021/06/14 10:59:00;;;;;;;7.53;2.77;;;;;;;27.29;25.23;98503.38;8420106;28;20212;-79
2021/06/14 11:03:04;;;;;;;7.13;3.17;;;;;;;27.59;25.15;98489.66;8419463;28;20208;-79
2021/06/14 11:07:08;;;;;;;6.37;3.23;;;;;;;27.27;24.75;98484.09;8419222;28;20224;-81
2021/06/14 11:11:27;;;;;;;9.03;3.20;;;;;;;27.03;24.51;98473.34;8419972;28;20242;-85
2021/06/14 11:15:35;;;;;;;5.63;2.67;;;;;;;27.20;24.52;98460.94;8418745;28;20426;-82
2021/06/14 11:19:38;;;;;;;5.27;2.90;;;;;;;27.93;25.17;98462.94;8418606;28;20204;-80
2021/06/14 11:23:42;;;;;;;7.43;3.27;;;;;;;27.33;24.16;98460.53;8418447;28;20226;-77
2021/06/14 11:27:45;;;;;;;6.37;2.73;;;;;;;27.50;24.18;98460.38;8418825;28;20214;-79
2021/06/14 11:32:02;;;;;;;7.37;2.70;;;;;;;27.87;23.52;98452.91;8419165;28;20236;-78
2021/06/14 11:36:14;;;;;;;11.47;2.73;;;;;;;27.89;23.57;98456.28;8418971;28;20209;-80
2021/06/14 11:40:18;;;;;;;6.43;3.00;;;;;;;28.06;22.60;98452.63;8418904;28;20199;-81
2021/06/14 11:44:27;;;;;;;5.87;2.93;;;;;;;27.27;23.02;98452.19;8431145;28;20211;-81
2021/06/14 11:48:33;;;;;;;5.93;2.47;;;;;;;27.84;23.79;98445.28;8421627;28;20205;-79
2021/06/14 11:52:37;;;;;;;7.60;2.73;;;;;;;28.22;22.41;98433.13;8417453;28;20528;-80
2021/06/14 11:56:40;;;;;;;6.17;2.50;;;;;;;28.30;23.22;98434.94;8403925;28;20203;-80
2021/06/14 12:00:45;;;;;;;8.30;3.27;;;;;;;28.51;22.35;98420.25;8384762;28;20200;-83
2021/06/14 12:04:53;;;;;;;3.97;2.33;;;;;;;28.73;21.99;98405.34;8384027;28;20215;-78
2021/06/14 12:09:07;;;;;;;11.67;3.30;;;;;;;28.28;22.03;98411.13;8414383;28;20232;-78
2021/06/14 12:13:11;;;;;;;5.63;2.80;;;;;;;28.10;22.94;98410.50;8402436;28;20219;-78
2021/06/14 12:17:14;;;;;;;6.87;2.37;;;;;;;28.66;22.30;98400.72;8393903;28;20192;-78
2021/06/14 12:21:19;;;;;;;4.80;2.60;;;;;;;28.62;22.62;98403.91;8394450;28;20261;-77
2021/06/14 12:25:22;;;;;;;5.83;2.60;;;;;;;29.17;23.08;98396.84;8415156;28;20439;-67
2021/06/14 12:29:25;;;;;;;3.73;2.57;;;;;;;29.02;22.22;98392.22;8414643;28;20192;-67
2021/06/14 12:33:29;;;;;;;7.63;2.87;;;;;;;28.36;21.99;98385.50;8402521;28;20220;-68
2021/06/14 12:37:34;;;;;;;8.00;2.87;;;;;;;27.69;23.06;98386.56;8412952;28;20214;-67
2021/06/14 12:41:44;;;;;;;5.60;2.43;;;;;;;28.21;23.13;98378.19;8399416;28;20198;-67
2021/06/14 12:45:46;;;;;;;6.03;2.80;;;;;;;28.30;21.92;98368.38;8416309;28;20196;-67
2021/06/14 12:49:50;;;;;;;4.73;2.70;;;;;;;28.46;22.31;98364.81;8409632;28;20192;-68
2021/06/14 12:53:57;;;;;;;9.03;2.70;;;;;;;28.54;21.88;98358.63;8408030;28;20384;-67
2021/06/14 12:58:02;;;;;;;5.67;2.60;;;;;;;27.82;23.25;98351.50;8409073;28;20507;-67
2021/06/14 13:02:06;;;;;;;7.43;2.87;;;;;;;28.85;23.33;98351.50;8405636;28;20198;-67
2021/06/14 13:06:09;;;;;;;5.97;2.60;;;;;;;29.31;22.85;98348.06;8398067;28;20219;-68
2021/06/14 13:10:16;;;;;;;8.87;2.63;;;;;;;28.91;21.99;98336.63;8392424;28;20219;-68
2021/06/14 13:14:27;;;;;;;6.70;2.60;;;;;;;29.16;22.53;98342.66;8397619;28;20242;-67
2021/06/14 13:18:29;;;;;;;5.43;2.60;;;;;;;29.03;21.83;98331.72;8397839;28;20403;-67
2021/06/14 13:22:36;;;;;;;7.00;2.47;;;;;;;28.99;22.65;98330.41;8396388;28;20195;-67
2021/06/14 13:26:42;;;;;;;4.80;2.47;;;;;;;28.40;22.91;98322.88;8398891;28;20205;-66
2021/06/14 13:30:47;;;;;;;4.90;2.47;;;;;;;28.41;22.60;98312.06;8413565;28;20201;-68
2021/06/14 13:34:54;;;;;;;6.67;2.70;;;;;;;28.62;22.61;98306.16;8419310;28;20222;-67
2021/06/14 13:38:57;;;;;;;5.40;2.40;;;;;;;28.76;22.97;98306.41;8414317;28;20383;-78
2021/06/14 13:43:03;;;;;;;5.50;2.60;;;;;;;28.87;22.85;98306.00;8415393;28;20195;-80
2021/06/14 13:47:07;;;;;;;5.00;2.70;;;;;;;28.63;22.62;98293.66;8454122;28;20206;-76
2021/06/14 13:51:15;;;;;;;5.27;2.40;;;;;;;28.37;23.18;98313.41;8421403;28;20209;-78
2021/06/14 13:55:22;;;;;;;7.23;2.77;;;;;;;27.97;23.46;98319.69;8405419;28;20513;-86
2021/06/14 13:59:27;;;;;;;5.63;2.70;;;;;;;28.54;24.08;98314.22;8417485;28;20211;-83
2021/06/14 14:03:30;;;;;;;6.60;2.33;;;;;;;28.99;23.95;98319.75;8403859;28;20195;-79
2021/06/14 14:07:33;;;;;;;6.17;2.80;;;;;;;28.79;22.86;98308.75;8405516;28;20218;-84
2021/06/14 14:11:36;;;;;;;5.60;2.50;;;;;;;28.18;23.54;98303.16;8404100;28;20286;-82
2021/06/14 14:15:40;;;;;;;6.67;2.47;;;;;;;28.56;22.69;98298.03;8403544;28;20198;-81
2021/06/14 14:19:51;;;;;;;7.77;2.40;;;;;;;28.57;23.11;98283.72;8404553;28;20197;-84
2021/06/14 14:23:54;;;;;;;4.47;2.33;;;;;;;28.61;23.57;98287.69;8404388;28;20195;-82
2021/06/14 14:27:57;;;;;;;6.13;2.70;;;;;;;28.63;23.22;98283.81;8403950;28;20195;-89
2021/06/14 14:32:03;;;;;;;5.33;2.70;;;;;;;28.70;23.39;98283.16;8420147;28;20199;-86
2021/06/14 14:36:08;;;;;;;6.50;2.30;;;;;;;28.65;23.38;98281.00;8420630;28;20505;-79
2021/06/14 14:40:13;;;;;;;6.77;2.80;;;;;;;28.64;23.40;98277.50;8419133;28;20195;-79
2021/06/14 14:44:18;;;;;;;6.20;2.27;;;;;;;28.82;23.93;98274.53;8419600;28;20213;-80
2021/06/14 14:48:22;;;;;;;4.50;2.37;;;;;;;28.84;24.07;98271.72;8416989;28;20242;-79
2021/06/14 14:52:26;;;;;;;5.13;2.60;;;;;;;28.64;24.00;98266.84;8418714;28;20423;-79
2021/06/14 14:56:31;;;;;;;6.53;2.60;;;;;;;28.83;25.91;98264.75;8418612;28;20228;-81
2021/06/14 15:00:34;;;;;;;5.77;2.30;;;;;;;28.73;25.53;98264.97;8416195;28;20205;-81
2021/06/14 15:04:39;;;;;;;5.20;2.60;;;;;;;28.60;26.11;98262.06;8415720;28;20206;-82
2021/06/14 15:08:42;;;;;;;5.60;2.73;;;;;;;28.56;25.03;98266.06;8413058;28;20232;-88
2021/06/14 15:12:45;;;;;;;3.70;2.30;;;;;;;28.54;24.86;98266.25;8398537;28;20220;-80
2021/06/14 15:16:48;;;;;;;5.50;2.30;;;;;;;28.42;24.37;98267.59;8402519;28;20275;-81
2021/06/14 15:20:52;;;;;;;8.93;2.53;;;;;;;28.49;25.00;98260.59;8404401;28;20193;-83
2021/06/14 15:24:55;;;;;;;5.30;2.47;;;;;;;28.37;24.74;98246.84;8419503;28;20215;-79
2021/06/14 15:28:58;;;;;;;4.03;2.40;;;;;;;28.28;25.64;98246.03;8418963;28;20208;-84
2021/06/14 15:33:02;;;;;;;5.77;2.33;;;;;;;28.24;26.10;98238.59;8418536;28;20405;-81
2021/06/14 15:37:07;;;;;;;4.70;2.53;;;;;;;28.14;25.71;98227.31;8418411;28;20204;-87
2021/06/14 15:41:10;;;;;;;6.57;2.80;;;;;;;28.01;25.56;98227.88;8417008;28;20495;-83
2021/06/14 15:45:13;;;;;;;13.30;2.90;;;;;;;27.99;25.79;98219.25;8400880;28;20206;-82
2021/06/14 15:49:17;;;;;;;3.57;1.97;;;;;;;28.03;26.07;98215.22;8411703;28;20507;-80
2021/06/14 15:53:21;;;;;;;6.77;2.70;;;;;;;27.98;26.21;98212.25;8399778;28;20403;-79
2021/06/14 15:57:24;;;;;;;5.00;2.83;;;;;;;27.94;27.37;98211.75;8402824;28;20211;-79
2021/06/14 16:01:26;;;;;;;4.50;2.33;;;;;;;27.88;26.07;98205.28;8400018;28;20192;-79
2021/06/14 16:05:29;;;;;;;5.03;2.63;;;;;;;27.87;26.81;98198.31;8399917;28;20216;-79
2021/06/14 16:09:33;;;;;;;5.27;2.40;;;;;;;27.71;27.53;98197.53;8400378;28;20234;-78
2021/06/14 16:13:38;;;;;;;4.40;2.43;;;;;;;27.76;26.97;98190.69;8399591;28;20420;-84
2021/06/14 16:17:42;;;;;;;6.00;3.00;;;;;;;27.60;27.09;98188.06;8398209;28;20196;-84
2021/06/14 16:21:45;;;;;;;19.97;11.37;;;;;;;27.53;26.71;98184.44;8399732;28;20215;-83
2021/06/14 16:25:49;;;;;;;6.53;3.27;;;;;;;27.62;27.72;98188.72;8399490;28;20483;-82
2021/06/14 16:29:53;;;;;;;4.70;2.70;;;;;;;27.54;26.99;98186.09;8385813;28;20196;-78
2021/06/14 16:33:57;;;;;;;4.77;2.43;;;;;;;27.39;27.98;98178.81;8383251;28;20228;-78
2021/06/14 16:38:00;;;;;;;5.40;2.30;;;;;;;27.40;27.81;98167.19;8383098;28;20517;-79
2021/06/14 16:42:04;;;;;;;4.83;2.50;;;;;;;27.27;27.68;98172.22;8383239;28;20291;-79
2021/06/14 16:46:07;;;;;;;6.80;3.03;;;;;;;27.22;27.64;98180.66;8438245;28;20452;-79
2021/06/14 16:50:11;;;;;;;5.40;2.73;;;;;;;27.10;28.27;98174.03;8428069;28;20199;-65
2021/06/14 16:54:15;;;;;;;6.83;2.53;;;;;;;27.02;28.24;98166.91;8415285;28;20229;-67
2021/06/14 16:58:19;;;;;;;7.00;2.70;;;;;;;26.90;27.86;98178.84;8415361;28;20267;-64
2021/06/14 17:02:22;;;;;;;5.67;2.70;;;;;;;26.85;28.12;98187.34;8414945;28;20484;-65
2021/06/14 17:06:26;;;;;;;5.70;2.50;;;;;;;26.77;28.86;98184.69;8415335;28;20525;-65
2021/06/14 17:10:29;;;;;;;5.53;2.50;;;;;;;26.53;28.83;98182.81;8398218;28;20234;-65
2021/06/14 17:14:38;;;;;;;4.07;2.20;;;;;;;26.53;29.01;98177.50;8381868;28;20422;-71
2021/06/14 17:18:41;;;;;;;5.17;2.40;;;;;;;26.42;28.97;98180.47;8390112;28;20526;-64
2021/06/14 17:22:44;;;;;;;4.20;2.30;;;;;;;26.29;29.17;98179.13;8414947;28;20206;-64
2021/06/14 17:26:47;;;;;;;6.63;2.80;;;;;;;26.16;29.96;98176.13;8414895;28;20227;-64
2021/06/14 17:30:52;;;;;;;7.87;2.60;;;;;;;26.16;30.24;98181.44;8414872;28;20202;-64
2021/06/14 17:34:55;;;;;;;5.43;2.27;;;;;;;26.08;30.59;98178.72;8414530;28;20237;-64
2021/06/14 17:38:57;;;;;;;4.60;2.47;;;;;;;26.02;30.98;98182.03;8414567;28;20246;-64
2021/06/14 17:43:00;;;;;;;7.47;2.80;;;;;;;25.94;30.89;98177.53;8415987;28;20226;-65
2021/06/14 17:47:10;;;;;;;4.03;2.43;;;;;;;25.93;30.71;98170.56;8433661;28;20236;-64
2021/06/14 17:51:14;;;;;;;4.00;2.40;;;;;;;25.79;31.32;98169.31;8412131;28;20207;-64
2021/06/14 17:55:18;;;;;;;3.53;2.30;;;;;;;25.76;30.82;98169.66;8413889;28;20342;-64
2021/06/14 17:59:22;;;;;;;4.07;2.37;;;;;;;25.68;31.40;98167.81;8413920;28;20192;-66
2021/06/14 18:03:26;;;;;;;8.40;2.90;;;;;;;25.68;31.39;98164.28;8413753;28;20199;-65
2021/06/14 18:07:29;;;;;;;5.63;2.37;;;;;;;25.62;31.57;98156.97;8414238;28;20308;-65
2021/06/14 18:11:33;;;;;;;6.93;2.80;;;;;;;25.48;30.64;98161.06;8414472;28;20232;-65
2021/06/14 18:15:36;;;;;;;7.00;2.70;;;;;;;25.43;30.91;98161.53;8416169;28;20236;-65
2021/06/14 18:19:40;;;;;;;5.67;2.57;;;;;;;25.39;31.11;98168.13;8420453;28;20200;-65
2021/06/14 18:23:43;;;;;;;6.57;2.77;;;;;;;25.36;31.96;98164.00;8420302;28;20370;-65
2021/06/14 18:27:46;;;;;;;5.93;3.00;;;;;;;25.24;32.90;98159.09;8420289;28;20270;-65
2021/06/14 18:31:54;;;;;;;5.87;2.63;;;;;;;25.21;33.21;98156.72;8420183;28;20199;-65
2021/06/14 18:36:01;;;;;;;7.93;2.80;;;;;;;25.14;32.94;98161.81;8419708;28;20238;-65
2021/06/14 18:40:04;;;;;;;6.30;3.20;;;;;;;25.03;32.75;98151.50;8419878;28;20199;-66
2021/06/14 18:44:07;;;;;;;6.93;2.90;;;;;;;24.95;33.05;98157.56;8430000;28;20213;-66
2021/06/14 18:48:11;;;;;;;5.33;2.80;;;;;;;24.85;33.32;98160.31;8453339;28;20416;-66
2021/06/14 18:52:16;;;;;;;4.87;2.80;;;;;;;24.81;33.63;98169.53;8453209;28;20226;-66
2021/06/14 18:56:19;;;;;;;5.13;2.43;;;;;;;24.71;34.14;98168.78;8453063;28;20249;-66
2021/06/14 19:00:22;;;;;;;5.60;2.77;;;;;;;24.67;34.20;98176.19;8452813;28;20221;-66
2021/06/14 19:04:25;;;;;;;7.17;3.10;;;;;;;24.58;34.17;98177.13;8452874;28;20202;-66
2021/06/14 19:08:29;;;;;;;5.27;2.90;;;;;;;24.55;35.44;98177.44;8452402;28;20229;-66
2021/06/14 19:12:32;;;;;;;6.30;2.90;;;;;;;24.48;34.90;98178.97;8452399;28;20210;-66